createdAt,value
2022-12-25T00:02:30.755Z,91.49
2022-12-25T00:05:03.514Z,91.94
2022-12-25T00:07:36.035Z,91.14
2022-12-25T00:10:10.619Z,90.76
2022-12-25T00:12:43.388Z,90.67
2022-12-25T00:15:16.046Z,91.05
2022-12-25T00:17:48.542Z,91.09
2022-12-25T00:20:21.235Z,90.72
2022-12-25T00:22:54.024Z,90.58
2022-12-25T00:25:26.505Z,90.78
2022-12-25T00:27:59.021Z,90.51
2022-12-25T00:30:31.589Z,89.48
2022-12-25T00:33:04.072Z,89.71
2022-12-25T00:35:39.478Z,89.57
2022-12-25T00:38:12.540Z,89.41
2022-12-25T00:40:47.889Z,89.28
2022-12-25T00:43:20.558Z,89.25
2022-12-25T00:46:01.193Z,89.29
2022-12-25T00:48:34.574Z,89.44
2022-12-25T00:51:09.466Z,89.45
2022-12-25T00:53:41.986Z,89.82
2022-12-25T00:56:14.500Z,89.93
2022-12-25T00:58:48.307Z,89.79
2022-12-25T01:01:20.962Z,89.76
2022-12-25T01:03:53.625Z,89.81
2022-12-25T01:06:26.179Z,90.04
2022-12-25T01:09:17.529Z,90.33
2022-12-25T01:11:53.276Z,90.62
2022-12-25T01:14:25.927Z,90.50
2022-12-25T01:16:58.705Z,90.75
2022-12-25T01:19:31.524Z,90.72
2022-12-25T01:22:05.126Z,90.86
2022-12-25T01:24:37.952Z,91.13
2022-12-25T01:27:10.509Z,91.17
2022-12-25T01:29:43.128Z,91.52
2022-12-25T01:32:16.113Z,91.85
2022-12-25T01:34:55.633Z,91.84
2022-12-25T01:37:29.038Z,92.32
2022-12-25T01:40:01.755Z,92.46
2022-12-25T01:42:34.458Z,92.69
2022-12-25T01:45:42.543Z,92.88
2022-12-25T01:48:18.054Z,93.40
2022-12-25T01:50:53.504Z,93.39
2022-12-25T01:53:27.218Z,93.55
2022-12-25T01:56:04.057Z,93.35
2022-12-25T01:58:37.223Z,93.45
2022-12-25T02:01:12.610Z,93.54
2022-12-25T02:03:46.020Z,93.80
2022-12-25T02:06:18.776Z,94.07
2022-12-25T02:08:53.139Z,94.41
2022-12-25T02:11:39.856Z,94.55
2022-12-25T02:14:13.491Z,94.98
2022-12-25T02:16:58.347Z,95.14
2022-12-25T02:20:04.325Z,95.42
2022-12-25T02:22:50.022Z,95.55
2022-12-25T02:25:37.949Z,95.60
2022-12-25T02:28:18.295Z,95.62
2022-12-25T02:30:58.138Z,95.37
2022-12-25T02:33:54.014Z,95.44
2022-12-25T02:36:32.732Z,95.18
2022-12-25T02:39:29.407Z,94.67
2022-12-25T02:42:07.494Z,94.47
2022-12-25T02:45:02.586Z,94.17
2022-12-25T02:48:00.250Z,94.11
2022-12-25T02:50:50.117Z,94.11
2022-12-25T02:53:40.619Z,94.03
2022-12-25T02:56:31.828Z,93.78
2022-12-25T02:59:23.261Z,93.93
2022-12-25T03:02:14.208Z,94.16
2022-12-25T03:05:05.568Z,94.34
2022-12-25T03:07:43.718Z,94.66
2022-12-25T03:10:36.201Z,94.71
2022-12-25T03:13:15.270Z,94.83
2022-12-25T03:16:06.161Z,95.08
2022-12-25T03:18:40.677Z,95.32
2022-12-25T03:21:30.969Z,95.60
2022-12-25T03:24:18.249Z,95.66
2022-12-25T03:26:57.565Z,95.76
2022-12-25T03:29:51.572Z,95.95
2022-12-25T03:32:36.975Z,95.95
2022-12-25T03:35:25.524Z,95.81
2022-12-25T03:38:32.709Z,95.98
2022-12-25T03:41:50.901Z,96.07
2022-12-25T03:44:51.661Z,96.12
2022-12-25T03:47:47.763Z,96.15
2022-12-25T03:50:42.528Z,96.06
2022-12-25T03:53:39.076Z,96.01
2022-12-25T03:56:31.387Z,96.07
2022-12-25T03:59:24.066Z,95.93
2022-12-25T04:02:16.958Z,96.00
2022-12-25T04:05:07.475Z,95.71
2022-12-25T04:07:57.679Z,95.48
2022-12-25T04:10:47.811Z,95.38
2022-12-25T04:13:37.849Z,95.20
2022-12-25T04:16:28.448Z,94.76
2022-12-25T04:19:18.772Z,94.68
2022-12-25T04:22:08.511Z,94.32
2022-12-25T04:24:58.936Z,94.21
2022-12-25T04:27:49.651Z,94.09
2022-12-25T04:30:39.586Z,93.99
2022-12-25T04:33:30.024Z,93.71
2022-12-25T04:36:11.825Z,93.91
2022-12-25T04:38:45.012Z,94.01
2022-12-25T04:41:18.303Z,94.16
2022-12-25T04:43:50.940Z,93.81
2022-12-25T04:46:23.645Z,93.90
2022-12-25T04:48:56.509Z,93.94
2022-12-25T04:51:29.412Z,94.01
2022-12-25T04:54:02.840Z,93.81
2022-12-25T04:56:41.580Z,93.64
2022-12-25T04:59:16.317Z,93.71
2022-12-25T05:01:49.270Z,93.37
2022-12-25T05:04:21.971Z,93.33
2022-12-25T05:06:54.875Z,93.19
2022-12-25T05:09:28.344Z,93.08
2022-12-25T05:12:00.980Z,93.24
2022-12-25T05:14:33.893Z,92.96
2022-12-25T05:17:07.984Z,92.94
2022-12-25T05:19:40.488Z,92.95
2022-12-25T05:22:13.144Z,92.83
2022-12-25T05:24:45.933Z,92.80
2022-12-25T05:27:19.000Z,93.06
2022-12-25T05:29:51.809Z,93.28
2022-12-25T05:32:25.269Z,93.38
2022-12-25T05:35:00.616Z,93.47
2022-12-25T05:37:33.137Z,93.67
2022-12-25T05:40:09.935Z,93.62
2022-12-25T05:42:42.967Z,93.63
2022-12-25T05:45:15.853Z,93.42
2022-12-25T05:47:48.650Z,93.14
2022-12-25T05:50:21.500Z,93.34
2022-12-25T05:52:54.146Z,93.37
2022-12-25T05:55:26.897Z,93.34
2022-12-25T05:58:00.407Z,93.50
2022-12-25T06:00:33.247Z,93.47
2022-12-25T06:03:06.222Z,93.34
2022-12-25T06:05:40.792Z,93.29
2022-12-25T06:08:13.415Z,93.19
2022-12-25T06:10:46.288Z,93.00
2022-12-25T06:13:18.813Z,92.84
2022-12-25T06:15:51.575Z,92.97
2022-12-25T06:18:24.481Z,92.80
2022-12-25T06:20:57.094Z,92.97
2022-12-25T06:23:29.949Z,92.87
2022-12-25T06:26:03.937Z,92.86
2022-12-25T06:28:36.877Z,92.91
2022-12-25T06:31:14.552Z,92.76
2022-12-25T06:33:48.317Z,92.57
2022-12-25T06:36:24.034Z,92.55
2022-12-25T06:38:57.391Z,92.71
2022-12-25T06:41:31.435Z,92.79
2022-12-25T06:44:05.220Z,92.64
2022-12-25T06:46:37.980Z,92.44
2022-12-25T06:49:11.233Z,92.32
2022-12-25T06:51:44.090Z,92.36
2022-12-25T06:54:17.040Z,92.76
2022-12-25T06:56:51.177Z,92.69
2022-12-25T06:59:23.899Z,92.40
2022-12-25T07:01:58.925Z,92.02
2022-12-25T07:04:35.693Z,91.94
2022-12-25T07:07:10.300Z,91.67
2022-12-25T07:09:43.795Z,91.42
2022-12-25T07:12:20.989Z,91.67
2022-12-25T07:14:55.214Z,91.42
2022-12-25T07:17:27.868Z,91.46
2022-12-25T07:20:01.345Z,91.30
2022-12-25T07:22:34.049Z,91.54
2022-12-25T07:25:07.507Z,91.50
2022-12-25T07:27:41.263Z,91.37
2022-12-25T07:30:15.622Z,91.65
2022-12-25T07:32:51.001Z,91.73
2022-12-25T07:35:23.633Z,91.62
2022-12-25T07:37:56.561Z,91.39
2022-12-25T07:40:29.344Z,91.36
2022-12-25T07:43:02.085Z,91.08
2022-12-25T07:45:35.442Z,90.70
2022-12-25T07:48:11.990Z,91.10
2022-12-25T07:50:49.023Z,90.80
2022-12-25T07:53:21.764Z,90.58
2022-12-25T07:56:02.119Z,90.84
2022-12-25T07:58:35.315Z,90.57
2022-12-25T08:01:11.830Z,90.77
2022-12-25T08:03:44.672Z,90.86
2022-12-25T08:06:17.442Z,90.58
2022-12-25T08:08:51.167Z,90.53
2022-12-25T08:11:23.684Z,90.74
2022-12-25T08:13:56.436Z,90.83
2022-12-25T08:16:29.154Z,90.74
2022-12-25T08:19:01.986Z,90.50
2022-12-25T08:21:35.572Z,90.83
2022-12-25T08:24:08.766Z,90.33
2022-12-25T08:26:41.429Z,89.76
2022-12-25T08:29:14.046Z,89.72
2022-12-25T08:31:47.382Z,89.48
2022-12-25T08:34:20.669Z,89.58
2022-12-25T08:36:53.389Z,89.40
2022-12-25T08:39:26.354Z,89.22
2022-12-25T08:42:00.004Z,88.97
2022-12-25T08:44:34.391Z,89.00
2022-12-25T08:47:07.257Z,88.83
2022-12-25T08:49:39.946Z,88.91
2022-12-25T08:52:13.779Z,89.01
2022-12-25T08:54:47.475Z,89.08
2022-12-25T08:57:21.007Z,88.31
2022-12-25T08:59:53.605Z,88.37
2022-12-25T09:02:26.585Z,88.30
2022-12-25T09:04:59.726Z,88.08
2022-12-25T09:07:32.615Z,88.32
2022-12-25T09:10:06.151Z,88.18
2022-12-25T09:12:40.668Z,88.18
2022-12-25T09:15:14.093Z,87.75
2022-12-25T09:17:46.796Z,87.73
2022-12-25T09:20:19.953Z,87.90
2022-12-25T09:22:53.776Z,87.85
2022-12-25T09:25:26.421Z,87.97
2022-12-25T09:27:59.900Z,87.99
2022-12-25T09:30:32.816Z,87.98
2022-12-25T09:33:05.516Z,87.77
2022-12-25T09:35:39.860Z,87.59
2022-12-25T09:38:12.509Z,87.48
2022-12-25T09:40:45.204Z,87.21
2022-12-25T09:43:22.526Z,86.91
2022-12-25T09:45:55.975Z,87.50
2022-12-25T09:48:32.420Z,87.02
2022-12-25T09:51:10.723Z,85.98
2022-12-25T09:53:47.488Z,86.28
2022-12-25T09:56:25.702Z,85.47
2022-12-25T09:59:00.646Z,85.44
2022-12-25T10:01:42.768Z,85.71
2022-12-25T10:04:41.614Z,85.60
2022-12-25T10:07:20.080Z,85.36
2022-12-25T10:10:04.764Z,85.49
2022-12-25T10:12:50.642Z,84.84
2022-12-25T10:15:45.264Z,85.16
2022-12-25T10:18:45.814Z,85.40
2022-12-25T10:21:20.690Z,85.38
2022-12-25T10:24:01.481Z,85.49
2022-12-25T10:26:36.630Z,85.87
2022-12-25T10:29:16.622Z,85.78
2022-12-25T10:31:54.974Z,85.78
2022-12-25T10:34:29.076Z,85.98
2022-12-25T10:37:02.534Z,85.60
2022-12-25T10:39:36.735Z,85.59
2022-12-25T10:42:30.470Z,85.95
2022-12-25T10:45:05.710Z,85.30
2022-12-25T10:47:42.692Z,85.20
2022-12-25T10:50:24.328Z,85.40
2022-12-25T10:53:05.110Z,85.64
2022-12-25T10:55:38.119Z,85.21
2022-12-25T10:58:19.921Z,85.23
2022-12-25T11:00:58.356Z,85.61
2022-12-25T11:03:33.349Z,85.04
2022-12-25T11:06:07.884Z,84.27
2022-12-25T11:08:40.542Z,84.21
2022-12-25T11:11:23.244Z,84.03
2022-12-25T11:13:58.801Z,84.07
2022-12-25T11:16:34.318Z,84.59
2022-12-25T11:19:23.154Z,84.65
2022-12-25T11:21:58.136Z,84.19
2022-12-25T11:24:32.426Z,84.17
2022-12-25T11:27:10.196Z,84.49
2022-12-25T11:29:47.931Z,84.63
2022-12-25T11:32:26.581Z,84.33
2022-12-25T11:35:00.248Z,84.24
2022-12-25T11:37:39.727Z,84.52
2022-12-25T11:40:19.603Z,84.73
2022-12-25T11:42:58.269Z,85.01
2022-12-25T11:45:39.579Z,85.34
2022-12-25T11:48:19.359Z,84.70
2022-12-25T11:50:56.280Z,85.24
2022-12-25T11:53:36.177Z,85.10
2022-12-25T11:56:12.890Z,83.91
2022-12-25T11:58:49.628Z,83.73
2022-12-25T12:01:29.806Z,83.71
2022-12-25T12:04:04.576Z,83.66
2022-12-25T12:06:46.935Z,83.65
2022-12-25T12:09:31.254Z,83.62
2022-12-25T12:12:09.978Z,83.62
2022-12-25T12:14:57.016Z,83.64
2022-12-25T12:17:32.339Z,83.99
2022-12-25T12:20:28.781Z,84.47
2022-12-25T12:23:03.669Z,84.75
2022-12-25T12:25:42.870Z,84.42
2022-12-25T12:28:24.392Z,84.65
2022-12-25T12:31:06.599Z,84.36
2022-12-25T12:33:42.942Z,83.68
2022-12-25T12:36:17.323Z,83.47
2022-12-25T12:38:51.072Z,83.38
2022-12-25T12:41:27.361Z,83.47
2022-12-25T12:44:04.070Z,83.53
2022-12-25T12:46:40.113Z,82.99
2022-12-25T12:49:21.733Z,83.05
2022-12-25T12:52:06.411Z,83.03
2022-12-25T12:54:58.039Z,83.43
2022-12-25T12:57:32.927Z,83.79
2022-12-25T13:00:10.878Z,83.87
2022-12-25T13:03:07.198Z,83.86
2022-12-25T13:05:46.202Z,83.61
2022-12-25T13:08:34.777Z,83.48
2022-12-25T13:11:21.187Z,83.26
2022-12-25T13:13:56.168Z,83.24
2022-12-25T13:16:32.227Z,83.36
2022-12-25T13:19:09.992Z,83.24
2022-12-25T13:21:52.675Z,83.23
2022-12-25T13:24:27.412Z,82.75
2022-12-25T13:27:01.297Z,82.19
2022-12-25T13:29:35.772Z,81.80
2022-12-25T13:32:16.676Z,81.65
2022-12-25T13:34:51.064Z,81.12
2022-12-25T13:37:26.373Z,80.88
2022-12-25T13:40:01.663Z,80.93
2022-12-25T13:42:48.771Z,81.00
2022-12-25T13:45:27.960Z,81.25
2022-12-25T13:48:10.491Z,81.65
2022-12-25T13:50:48.498Z,82.00
2022-12-25T13:53:21.677Z,82.00
2022-12-25T13:55:57.571Z,82.37
2022-12-25T13:58:34.894Z,82.56
2022-12-25T14:01:08.055Z,82.87
2022-12-25T14:03:45.632Z,83.04
2022-12-25T14:06:26.148Z,82.91
2022-12-25T14:09:00.011Z,82.60
2022-12-25T14:11:34.181Z,82.74
2022-12-25T14:14:16.150Z,82.45
2022-12-25T14:16:50.690Z,82.64
2022-12-25T14:19:31.975Z,82.65
2022-12-25T14:22:11.344Z,82.47
2022-12-25T14:24:43.907Z,82.66
2022-12-25T14:27:22.115Z,82.74
2022-12-25T14:29:54.304Z,83.01
2022-12-25T14:32:29.821Z,83.09
2022-12-25T14:35:04.051Z,83.22
2022-12-25T14:37:38.367Z,83.42
2022-12-25T14:40:25.768Z,83.56
2022-12-25T14:43:02.883Z,83.61
2022-12-25T14:45:38.579Z,83.59
2022-12-25T14:48:25.426Z,83.61
2022-12-25T14:51:03.550Z,83.38
2022-12-25T14:53:40.965Z,83.63
2022-12-25T14:56:20.086Z,83.70
2022-12-25T14:58:55.947Z,83.47
2022-12-25T15:01:33.525Z,83.67
2022-12-25T15:04:16.109Z,83.82
2022-12-25T15:06:59.457Z,84.04
2022-12-25T15:09:32.423Z,84.08
2022-12-25T15:12:05.413Z,84.13
2022-12-25T15:14:40.192Z,83.85
2022-12-25T15:17:24.520Z,84.27
2022-12-25T15:20:01.728Z,84.18
2022-12-25T15:22:53.944Z,84.37
2022-12-25T15:25:27.546Z,84.55
2022-12-25T15:28:01.887Z,84.58
2022-12-25T15:30:35.683Z,85.13
2022-12-25T15:33:08.707Z,85.02
2022-12-25T15:35:41.303Z,85.16
2022-12-25T15:38:14.380Z,85.15
2022-12-25T15:40:48.189Z,85.33
2022-12-25T15:43:39.990Z,85.35
2022-12-25T15:46:13.700Z,85.50
2022-12-25T15:48:46.296Z,85.28
2022-12-25T15:51:20.058Z,85.21
2022-12-25T15:53:52.783Z,85.48
2022-12-25T15:56:27.304Z,85.43
2022-12-25T15:58:59.814Z,85.53
2022-12-25T16:01:32.456Z,85.61
2022-12-25T16:04:06.127Z,86.05
2022-12-25T16:06:38.633Z,86.20
2022-12-25T16:09:12.799Z,86.35
2022-12-25T16:11:45.567Z,86.77
2022-12-25T16:14:19.663Z,86.72
2022-12-25T16:16:52.164Z,86.98
2022-12-25T16:19:25.020Z,87.03
2022-12-25T16:21:57.991Z,87.06
2022-12-25T16:24:30.493Z,87.02
2022-12-25T16:27:02.983Z,87.06
2022-12-25T16:29:35.553Z,87.01
2022-12-25T16:32:08.251Z,86.53
2022-12-25T16:34:40.860Z,86.42
2022-12-25T16:37:13.509Z,86.74
2022-12-25T16:39:46.390Z,87.09
2022-12-25T16:42:21.255Z,87.34
2022-12-25T16:44:54.282Z,87.59
2022-12-25T16:47:26.814Z,88.01
2022-12-25T16:49:59.674Z,88.47
2022-12-25T16:52:32.871Z,88.64
2022-12-25T16:55:07.781Z,88.82
2022-12-25T16:57:40.423Z,88.68
2022-12-25T17:00:15.028Z,88.49
2022-12-25T17:02:47.694Z,88.48
2022-12-25T17:05:20.500Z,88.28
2022-12-25T17:07:56.375Z,88.42
2022-12-25T17:10:28.931Z,88.40
2022-12-25T17:13:01.454Z,88.81
2022-12-25T17:15:34.066Z,88.46
2022-12-25T17:18:06.775Z,88.52
2022-12-25T17:20:39.604Z,88.51
2022-12-25T17:23:12.096Z,88.08
2022-12-25T17:25:44.570Z,88.09
2022-12-25T17:28:17.208Z,88.03
2022-12-25T17:30:49.800Z,87.86
2022-12-25T17:33:22.421Z,87.75
2022-12-25T17:36:00.048Z,87.59
2022-12-25T17:38:36.284Z,87.55
2022-12-25T17:41:11.747Z,86.97
2022-12-25T17:43:46.720Z,86.23
2022-12-25T17:46:21.475Z,86.20
2022-12-25T17:48:56.185Z,86.39
2022-12-25T17:51:30.574Z,86.34
2022-12-25T17:54:04.274Z,86.85
2022-12-25T17:56:37.019Z,87.08
2022-12-25T17:59:12.190Z,87.05
2022-12-25T18:01:44.713Z,86.87
2022-12-25T18:04:17.365Z,87.17
2022-12-25T18:06:50.171Z,87.16
2022-12-25T18:09:23.381Z,87.32
2022-12-25T18:11:56.248Z,87.39
2022-12-25T18:14:29.769Z,87.62
2022-12-25T18:17:02.341Z,87.59
2022-12-25T18:19:35.532Z,87.68
2022-12-25T18:22:08.091Z,87.51
2022-12-25T18:24:41.018Z,87.84
2022-12-25T18:27:14.257Z,88.31
2022-12-25T18:29:47.986Z,88.54
2022-12-25T18:32:26.306Z,88.65
2022-12-25T18:35:00.514Z,88.54
2022-12-25T18:37:39.463Z,88.52
2022-12-25T18:40:13.724Z,88.47
2022-12-25T18:42:46.709Z,88.48
2022-12-25T18:45:21.207Z,88.49
2022-12-25T18:47:53.666Z,88.42
2022-12-25T18:50:26.157Z,88.13
2022-12-25T18:52:58.754Z,87.72
2022-12-25T18:55:31.921Z,87.02
2022-12-25T18:58:04.915Z,86.75
2022-12-25T19:00:37.496Z,87.00
2022-12-25T19:03:10.085Z,86.95
2022-12-25T19:05:43.830Z,87.16
2022-12-25T19:08:16.370Z,87.50
2022-12-25T19:10:49.395Z,87.75
2022-12-25T19:13:22.444Z,87.34
2022-12-25T19:15:58.287Z,87.89
2022-12-25T19:18:31.081Z,87.81
2022-12-25T19:21:09.247Z,88.01
2022-12-25T19:23:41.923Z,87.99
2022-12-25T19:26:15.085Z,88.14
2022-12-25T19:28:47.801Z,88.37
2022-12-25T19:31:20.456Z,88.20
2022-12-25T19:33:54.459Z,88.32
2022-12-25T19:36:27.016Z,88.38
2022-12-25T19:38:59.842Z,88.02
2022-12-25T19:41:32.872Z,87.59
2022-12-25T19:44:05.936Z,87.19
2022-12-25T19:46:41.848Z,87.10
2022-12-25T19:49:15.800Z,87.10
2022-12-25T19:51:48.958Z,87.62
2022-12-25T19:54:21.514Z,87.66
2022-12-25T19:56:54.040Z,87.87
2022-12-25T19:59:28.304Z,87.87
2022-12-25T20:02:00.999Z,88.12
2022-12-25T20:04:33.617Z,88.09
2022-12-25T20:07:06.142Z,88.07
2022-12-25T20:09:38.654Z,88.04
2022-12-25T20:12:14.709Z,88.16
2022-12-25T20:14:47.375Z,88.38
2022-12-25T20:17:20.088Z,88.56
2022-12-25T20:19:52.624Z,88.55
2022-12-25T20:22:25.105Z,88.54
2022-12-25T20:24:58.485Z,88.73
2022-12-25T20:27:31.309Z,88.85
2022-12-25T20:30:04.277Z,89.03
2022-12-25T20:32:36.814Z,89.13
2022-12-25T20:35:15.749Z,89.43
2022-12-25T20:37:48.647Z,89.23
2022-12-25T20:40:21.341Z,89.16
2022-12-25T20:42:53.862Z,89.09
2022-12-25T20:45:26.338Z,89.28
2022-12-25T20:47:59.229Z,89.17
2022-12-25T20:50:32.111Z,89.25
2022-12-25T20:53:04.607Z,89.34
2022-12-25T20:55:37.222Z,89.11
2022-12-25T20:58:09.841Z,89.27
2022-12-25T21:00:43.771Z,89.51
2022-12-25T21:03:16.939Z,89.39
2022-12-25T21:05:55.840Z,89.09
2022-12-25T21:08:28.715Z,89.00
2022-12-25T21:11:02.896Z,89.37
2022-12-25T21:13:38.306Z,89.94
2022-12-25T21:16:13.354Z,89.66
2022-12-25T21:18:45.948Z,88.83
2022-12-25T21:21:18.946Z,88.63
2022-12-25T21:23:51.827Z,88.61
2022-12-25T21:26:27.103Z,88.63
2022-12-25T21:29:01.623Z,88.98
2022-12-25T21:31:55.677Z,88.90
2022-12-25T21:34:30.567Z,89.22
2022-12-25T21:37:03.089Z,89.61
2022-12-25T21:39:35.611Z,89.60
2022-12-25T21:42:08.260Z,89.96
2022-12-25T21:44:40.854Z,89.49
2022-12-25T21:47:13.426Z,89.42
2022-12-25T21:50:03.357Z,89.41
2022-12-25T21:52:36.458Z,89.51
2022-12-25T21:55:10.502Z,89.59
2022-12-25T21:57:43.376Z,89.41
2022-12-25T22:00:17.004Z,89.65
2022-12-25T22:02:51.179Z,89.70
2022-12-25T22:05:38.380Z,89.20
2022-12-25T22:08:10.996Z,89.46
2022-12-25T22:10:43.511Z,89.40
2022-12-25T22:13:33.277Z,89.33
2022-12-25T22:16:26.372Z,89.42
2022-12-25T22:19:17.693Z,88.83
2022-12-25T22:21:50.536Z,88.84
2022-12-25T22:24:23.600Z,88.80
2022-12-25T22:26:56.096Z,88.93
2022-12-25T22:29:30.925Z,88.61
2022-12-25T22:32:03.458Z,89.16
2022-12-25T22:34:39.011Z,89.37
2022-12-25T22:37:15.327Z,89.22
2022-12-25T22:39:48.042Z,89.13
2022-12-25T22:42:20.757Z,89.06
2022-12-25T22:44:53.299Z,89.24
2022-12-25T22:47:26.574Z,89.31
2022-12-25T22:50:00.781Z,89.41
2022-12-25T22:52:33.497Z,89.35
2022-12-25T22:55:08.311Z,89.41
2022-12-25T22:57:40.791Z,89.52
2022-12-25T23:00:16.678Z,89.67
2022-12-25T23:02:49.343Z,89.53
2022-12-25T23:05:22.277Z,89.47
2022-12-25T23:07:54.774Z,89.56
2022-12-25T23:10:28.040Z,89.64
2022-12-25T23:13:17.750Z,89.37
2022-12-25T23:15:51.172Z,89.40
2022-12-25T23:18:40.944Z,89.84
2022-12-25T23:21:33.508Z,89.68
2022-12-25T23:24:38.195Z,89.57
2022-12-25T23:27:10.928Z,89.51
2022-12-25T23:29:43.452Z,89.50
2022-12-25T23:32:22.493Z,89.33
2022-12-25T23:34:55.878Z,89.04
2022-12-25T23:37:28.407Z,88.90
2022-12-25T23:40:03.799Z,89.14
2022-12-25T23:42:36.310Z,89.73
2022-12-25T23:45:10.661Z,90.13
2022-12-25T23:47:43.142Z,90.88
2022-12-25T23:50:15.795Z,91.37
2022-12-25T23:52:48.343Z,91.86
2022-12-25T23:55:20.950Z,92.09
2022-12-25T23:57:53.539Z,92.04
